createdAt,value
2022-07-31T00:02:07.735Z,2.97
2022-07-31T00:04:34.310Z,3.00
2022-07-31T00:07:01.228Z,3.00
2022-07-31T00:09:45.506Z,3.90
2022-07-31T00:12:17.545Z,2.80
2022-07-31T00:14:45.093Z,2.90
2022-07-31T00:17:11.750Z,2.67
2022-07-31T00:19:38.597Z,2.53
2022-07-31T00:22:05.236Z,2.72
2022-07-31T00:24:34.493Z,2.72
2022-07-31T00:27:01.724Z,3.05
2022-07-31T00:29:28.603Z,3.33
2022-07-31T00:31:55.164Z,3.10
2022-07-31T00:34:21.775Z,2.90
2022-07-31T00:36:48.845Z,2.80
2022-07-31T00:39:15.705Z,3.10
2022-07-31T00:41:46.723Z,2.88
2022-07-31T00:44:14.029Z,2.70
2022-07-31T00:46:42.206Z,2.45
2022-07-31T00:49:12.697Z,3.13
2022-07-31T00:51:40.242Z,3.05
2022-07-31T00:54:08.389Z,3.15
2022-07-31T00:56:35.552Z,2.72
2022-07-31T00:59:02.678Z,2.63
2022-07-31T01:01:29.339Z,3.15
2022-07-31T01:03:55.978Z,2.78
2022-07-31T01:06:22.807Z,2.90
2022-07-31T01:08:49.536Z,2.97
2022-07-31T01:11:23.520Z,2.50
2022-07-31T01:14:00.545Z,3.00
2022-07-31T01:16:30.741Z,2.65
2022-07-31T01:18:59.486Z,3.35
2022-07-31T01:22:00.512Z,3.20
2022-07-31T01:24:36.802Z,2.97
2022-07-31T01:27:10.786Z,2.92
2022-07-31T01:29:49.676Z,2.75
2022-07-31T01:32:29.475Z,2.70
2022-07-31T01:35:04.298Z,2.85
2022-07-31T01:37:36.367Z,2.90
2022-07-31T01:40:08.767Z,2.80
2022-07-31T01:42:37.706Z,3.25
2022-07-31T01:45:07.339Z,3.30
2022-07-31T01:47:35.339Z,3.20
2022-07-31T01:50:04.831Z,2.60
2022-07-31T01:52:33.036Z,3.10
2022-07-31T01:55:00.877Z,2.72
2022-07-31T01:57:29.612Z,2.80
2022-07-31T02:00:00.871Z,1.83
2022-07-31T02:02:30.549Z,1.27
2022-07-31T02:04:58.297Z,1.20
2022-07-31T02:07:26.437Z,1.05
2022-07-31T02:09:58.673Z,1.40
2022-07-31T02:12:33.342Z,1.35
2022-07-31T02:15:03.998Z,1.40
2022-07-31T02:17:31.506Z,1.33
2022-07-31T02:20:00.850Z,1.50
2022-07-31T02:22:29.499Z,1.40
2022-07-31T02:24:56.211Z,1.60
2022-07-31T02:27:57.855Z,1.42
2022-07-31T02:30:12.522Z,1.42
2022-07-31T02:32:40.950Z,1.38
2022-07-31T02:35:08.762Z,1.60
2022-07-31T02:37:38.280Z,1.60
2022-07-31T02:40:06.631Z,1.95
2022-07-31T02:42:34.287Z,1.42
2022-07-31T02:45:02.440Z,1.55
2022-07-31T02:47:29.678Z,1.27
2022-07-31T02:49:58.124Z,1.30
2022-07-31T02:52:25.457Z,1.90
2022-07-31T02:54:52.909Z,1.35
2022-07-31T02:57:19.637Z,1.70
2022-07-31T02:59:46.515Z,1.33
2022-07-31T03:02:13.225Z,1.17
2022-07-31T03:04:39.899Z,1.38
2022-07-31T03:07:06.572Z,1.65
2022-07-31T03:09:33.202Z,1.58
2022-07-31T03:12:01.802Z,1.90
2022-07-31T03:14:34.401Z,1.20
2022-07-31T03:17:01.873Z,1.40
2022-07-31T03:19:28.787Z,1.35
2022-07-31T03:21:56.383Z,1.20
2022-07-31T03:24:23.080Z,1.40
2022-07-31T03:26:49.839Z,1.48
2022-07-31T03:29:42.836Z,1.60
2022-07-31T03:32:03.230Z,1.48
2022-07-31T03:34:30.033Z,1.40
2022-07-31T03:36:56.570Z,1.77
2022-07-31T03:39:23.227Z,1.48
2022-07-31T03:41:51.145Z,1.38
2022-07-31T03:44:20.161Z,1.25
2022-07-31T03:46:47.152Z,1.20
2022-07-31T03:49:14.692Z,1.50
2022-07-31T03:51:41.325Z,1.40
2022-07-31T03:54:07.966Z,1.60
2022-07-31T03:56:36.127Z,1.55
2022-07-31T03:59:04.497Z,1.40
2022-07-31T04:01:58.064Z,1.45
2022-07-31T04:04:18.611Z,1.13
2022-07-31T04:06:45.357Z,1.42
2022-07-31T04:09:15.600Z,1.40
2022-07-31T04:11:46.000Z,1.50
2022-07-31T04:14:12.588Z,1.40
2022-07-31T04:16:39.200Z,1.20
2022-07-31T04:19:05.787Z,1.80
2022-07-31T04:21:32.352Z,1.35
2022-07-31T04:23:59.215Z,1.60
2022-07-31T04:26:26.472Z,1.42
2022-07-31T04:28:53.162Z,1.45
2022-07-31T04:31:19.731Z,1.17
2022-07-31T04:33:48.293Z,1.60
2022-07-31T04:36:30.651Z,1.63
2022-07-31T04:39:01.116Z,1.40
2022-07-31T04:41:28.208Z,1.75
2022-07-31T04:43:54.907Z,1.20
2022-07-31T04:46:21.517Z,1.58
2022-07-31T04:48:49.303Z,1.33
2022-07-31T04:51:18.272Z,1.60
2022-07-31T04:53:46.282Z,1.60
2022-07-31T04:56:32.322Z,1.40
2022-07-31T04:59:01.053Z,1.70
2022-07-31T05:01:27.757Z,1.38
2022-07-31T05:03:54.418Z,1.45
2022-07-31T05:06:21.058Z,1.55
2022-07-31T05:08:47.754Z,1.58
2022-07-31T05:11:23.369Z,1.88
2022-07-31T05:13:58.153Z,1.42
2022-07-31T05:16:27.452Z,1.88
2022-07-31T05:18:54.781Z,1.20
2022-07-31T05:21:22.207Z,1.60
2022-07-31T05:23:49.747Z,1.77
2022-07-31T05:26:18.120Z,1.63
2022-07-31T05:28:46.602Z,1.50
2022-07-31T05:31:13.628Z,1.48
2022-07-31T05:33:40.261Z,1.67
2022-07-31T05:36:07.437Z,1.60
2022-07-31T05:38:34.339Z,1.58
2022-07-31T05:41:01.141Z,1.73
2022-07-31T05:43:27.980Z,1.30
2022-07-31T05:45:54.968Z,1.45
2022-07-31T05:48:22.462Z,1.40
2022-07-31T05:50:50.683Z,1.73
2022-07-31T05:53:18.638Z,1.70
2022-07-31T05:55:46.725Z,1.60
2022-07-31T05:58:17.028Z,1.15
2022-07-31T06:00:45.958Z,1.85
2022-07-31T06:03:13.166Z,1.33
2022-07-31T06:05:40.994Z,1.50
2022-07-31T06:08:09.680Z,1.40
2022-07-31T06:10:40.343Z,1.27
2022-07-31T06:13:06.940Z,1.60
2022-07-31T06:15:36.556Z,1.50
2022-07-31T06:18:04.188Z,0.98
2022-07-31T06:20:31.123Z,1.55
2022-07-31T06:22:58.104Z,1.80
2022-07-31T06:25:24.758Z,1.70
2022-07-31T06:27:59.902Z,1.38
2022-07-31T06:30:28.039Z,1.10
2022-07-31T06:32:54.628Z,1.48
2022-07-31T06:35:21.410Z,1.63
2022-07-31T06:37:48.046Z,1.63
2022-07-31T06:40:14.737Z,1.88
2022-07-31T06:42:42.109Z,5.50
2022-07-31T06:45:09.387Z,1.63
2022-07-31T06:47:36.101Z,1.50
2022-07-31T06:50:03.088Z,1.95
2022-07-31T06:52:29.650Z,7.47
2022-07-31T06:54:56.382Z,3.72
2022-07-31T06:57:23.122Z,3.53
2022-07-31T06:59:49.900Z,3.13
2022-07-31T07:02:16.509Z,3.42
2022-07-31T07:05:04.579Z,3.33
2022-07-31T07:07:32.168Z,3.20
2022-07-31T07:09:59.462Z,3.75
2022-07-31T07:12:26.929Z,3.50
2022-07-31T07:14:55.075Z,2.78
2022-07-31T07:17:23.813Z,3.33
2022-07-31T07:19:54.746Z,3.63
2022-07-31T07:22:31.982Z,3.33
2022-07-31T07:25:00.377Z,3.70
2022-07-31T07:27:27.226Z,3.45
2022-07-31T07:29:54.450Z,2.95
2022-07-31T07:32:21.440Z,3.70
2022-07-31T07:34:48.704Z,3.60
2022-07-31T07:37:27.972Z,4.00
2022-07-31T07:39:54.663Z,3.33
2022-07-31T07:42:21.415Z,3.53
2022-07-31T07:44:48.265Z,3.20
2022-07-31T07:47:15.518Z,3.20
2022-07-31T07:49:42.553Z,3.83
2022-07-31T07:52:09.746Z,3.45
2022-07-31T07:54:37.718Z,3.25
2022-07-31T07:57:04.902Z,2.92
2022-07-31T07:59:31.967Z,2.80
2022-07-31T08:01:58.833Z,2.90
2022-07-31T08:04:25.576Z,2.97
2022-07-31T08:06:52.828Z,3.60
2022-07-31T08:14:15.268Z,2.88
2022-07-31T08:16:43.105Z,3.70
2022-07-31T08:19:10.006Z,3.90
2022-07-31T08:21:37.655Z,3.50
2022-07-31T08:24:04.852Z,3.40
2022-07-31T08:26:51.971Z,3.60
2022-07-31T08:29:19.427Z,3.63
2022-07-31T08:31:54.546Z,3.40
2022-07-31T08:34:32.027Z,3.88
2022-07-31T08:36:59.414Z,3.40
2022-07-31T08:39:46.748Z,3.17
2022-07-31T08:42:13.578Z,3.15
2022-07-31T08:44:41.404Z,3.70
2022-07-31T08:47:17.469Z,3.40
2022-07-31T08:49:48.507Z,3.67
2022-07-31T08:52:24.462Z,3.40
2022-07-31T08:54:54.429Z,3.63
2022-07-31T08:57:21.065Z,3.30
2022-07-31T08:59:55.009Z,3.20
2022-07-31T09:02:21.643Z,3.47
2022-07-31T09:04:52.449Z,3.20
2022-07-31T09:07:19.696Z,3.42
2022-07-31T09:09:51.533Z,3.90
2022-07-31T09:12:33.567Z,3.20
2022-07-31T09:15:00.840Z,3.58
2022-07-31T09:17:39.932Z,3.40
2022-07-31T09:20:23.345Z,3.20
2022-07-31T09:23:04.324Z,3.40
2022-07-31T09:25:31.156Z,3.17
2022-07-31T09:28:06.289Z,3.90
2022-07-31T09:30:34.165Z,3.17
2022-07-31T09:33:16.791Z,2.95
2022-07-31T09:35:50.622Z,2.75
2022-07-31T09:38:18.581Z,2.83
2022-07-31T09:40:55.371Z,2.65
2022-07-31T09:43:25.787Z,2.85
2022-07-31T09:45:59.242Z,3.17
2022-07-31T09:48:26.553Z,3.10
2022-07-31T09:50:58.707Z,2.70
2022-07-31T09:53:26.171Z,2.72
2022-07-31T09:55:57.457Z,2.65
2022-07-31T09:58:26.846Z,2.70
2022-07-31T10:00:54.037Z,2.67
2022-07-31T10:03:21.675Z,2.63
2022-07-31T10:05:48.534Z,2.65
2022-07-31T10:08:17.288Z,2.78
2022-07-31T10:10:45.287Z,2.75
2022-07-31T10:13:17.857Z,3.15
2022-07-31T10:15:47.267Z,2.47
2022-07-31T10:18:17.765Z,2.60
2022-07-31T10:21:04.669Z,2.65
2022-07-31T10:23:34.363Z,2.50
2022-07-31T10:26:03.006Z,2.50
2022-07-31T10:28:29.995Z,2.70
2022-07-31T10:30:57.595Z,2.80
2022-07-31T10:33:43.752Z,2.97
2022-07-31T10:36:21.825Z,2.78
2022-07-31T10:39:05.967Z,3.03
2022-07-31T10:42:31.654Z,2.90
2022-07-31T10:45:05.805Z,2.65
2022-07-31T10:47:33.145Z,2.85
2022-07-31T10:49:59.931Z,2.70
2022-07-31T10:52:34.564Z,2.60
2022-07-31T10:55:02.107Z,3.53
2022-07-31T10:57:32.607Z,2.40
2022-07-31T11:00:35.298Z,2.47
2022-07-31T11:03:18.147Z,2.97
2022-07-31T11:06:00.850Z,2.60
2022-07-31T11:08:40.926Z,2.60
2022-07-31T11:11:07.620Z,2.40
2022-07-31T11:13:54.286Z,2.30
2022-07-31T11:16:21.030Z,2.95
2022-07-31T11:19:04.840Z,2.35
2022-07-31T11:21:40.715Z,2.58
2022-07-31T11:24:21.932Z,2.67
2022-07-31T11:26:55.479Z,2.30
2022-07-31T11:30:01.552Z,2.50
2022-07-31T11:32:25.095Z,2.60
2022-07-31T11:34:57.115Z,2.80
2022-07-31T11:37:44.108Z,3.38
2022-07-31T11:40:13.388Z,2.70
2022-07-31T11:42:46.373Z,2.45
2022-07-31T11:45:16.742Z,2.53
2022-07-31T11:48:11.674Z,2.58
2022-07-31T11:50:42.051Z,2.42
2022-07-31T11:53:09.268Z,2.92
2022-07-31T11:56:00.701Z,2.75
2022-07-31T11:58:29.693Z,3.10
2022-07-31T12:01:02.271Z,2.92
2022-07-31T12:03:32.449Z,2.88
2022-07-31T12:05:59.945Z,2.85
2022-07-31T12:08:27.716Z,2.88
2022-07-31T12:11:00.121Z,2.53
2022-07-31T12:13:28.824Z,2.67
2022-07-31T12:16:04.295Z,2.60
2022-07-31T12:18:45.016Z,2.90
2022-07-31T12:21:14.534Z,2.97
2022-07-31T12:23:52.484Z,2.50
2022-07-31T12:26:29.586Z,2.30
2022-07-31T12:29:00.347Z,2.70
2022-07-31T12:31:28.645Z,2.55
2022-07-31T12:33:55.737Z,2.70
2022-07-31T12:36:22.798Z,2.47
2022-07-31T12:39:03.971Z,2.75
2022-07-31T12:41:31.914Z,2.67
2022-07-31T12:44:13.451Z,2.80
2022-07-31T12:46:42.036Z,2.47
2022-07-31T12:49:09.694Z,2.55
2022-07-31T12:51:44.942Z,4.43
2022-07-31T12:54:18.129Z,9.23
2022-07-31T12:56:47.113Z,5.20
2022-07-31T12:59:15.484Z,2.50
2022-07-31T13:01:42.528Z,2.88
2022-07-31T13:04:18.206Z,2.70
2022-07-31T13:06:48.900Z,2.33
2022-07-31T13:09:16.386Z,2.60
2022-07-31T13:11:46.937Z,2.65
2022-07-31T13:14:20.501Z,2.63
2022-07-31T13:16:49.304Z,2.50
2022-07-31T13:19:16.106Z,2.30
2022-07-31T13:21:49.113Z,2.78
2022-07-31T13:24:16.950Z,2.80
2022-07-31T13:26:45.284Z,2.80
2022-07-31T13:29:12.190Z,2.70
2022-07-31T13:31:39.325Z,2.80
2022-07-31T13:34:06.164Z,2.53
2022-07-31T13:36:35.968Z,2.58
2022-07-31T13:39:05.732Z,2.20
2022-07-31T13:41:36.085Z,2.50
2022-07-31T13:44:05.579Z,2.45
2022-07-31T13:46:32.217Z,2.38
2022-07-31T13:48:59.721Z,2.38
2022-07-31T13:51:29.319Z,2.50
2022-07-31T13:53:58.868Z,2.45
2022-07-31T13:56:39.666Z,2.15
2022-07-31T13:59:11.797Z,2.72
2022-07-31T14:02:03.958Z,2.47
2022-07-31T14:04:32.213Z,2.53
2022-07-31T14:07:01.120Z,2.47
2022-07-31T14:09:28.266Z,2.70
2022-07-31T14:11:57.210Z,2.38
2022-07-31T14:14:24.009Z,2.63
2022-07-31T14:16:50.749Z,2.90
2022-07-31T14:19:17.393Z,4.47
2022-07-31T14:21:56.111Z,3.30
2022-07-31T14:24:27.293Z,2.58
2022-07-31T14:26:53.910Z,2.60
2022-07-31T14:29:20.738Z,2.42
2022-07-31T14:31:51.659Z,2.72
2022-07-31T14:34:18.263Z,2.58
2022-07-31T14:36:44.801Z,2.67
2022-07-31T14:39:12.545Z,2.30
2022-07-31T14:41:40.580Z,2.80
2022-07-31T14:44:07.196Z,2.45
2022-07-31T14:46:33.787Z,2.58
2022-07-31T14:49:02.672Z,2.75
2022-07-31T14:51:29.388Z,2.85
2022-07-31T14:53:59.698Z,2.78
2022-07-31T14:56:58.401Z,2.90
2022-07-31T14:59:15.752Z,2.80
2022-07-31T15:01:42.532Z,2.72
2022-07-31T15:04:12.430Z,2.67
2022-07-31T15:06:51.472Z,3.05
2022-07-31T15:09:32.116Z,2.80
2022-07-31T15:12:01.112Z,2.38
2022-07-31T15:14:29.606Z,2.20
2022-07-31T15:16:58.920Z,2.50
2022-07-31T15:19:27.981Z,2.30
2022-07-31T15:22:10.568Z,2.83
2022-07-31T15:24:48.454Z,2.90
2022-07-31T15:27:18.064Z,2.60
2022-07-31T15:30:05.196Z,2.70
2022-07-31T15:32:31.232Z,2.58
2022-07-31T15:34:57.785Z,2.83
2022-07-31T15:37:24.380Z,3.00
2022-07-31T15:40:02.128Z,2.95
2022-07-31T15:42:31.937Z,8.68
2022-07-31T15:44:58.846Z,11.75
2022-07-31T15:47:27.947Z,4.50
2022-07-31T15:49:56.597Z,2.80
2022-07-31T15:52:23.676Z,3.00
2022-07-31T15:54:51.667Z,3.35
2022-07-31T15:57:22.327Z,3.00
2022-07-31T15:59:50.469Z,3.10
2022-07-31T16:02:17.770Z,2.80
2022-07-31T16:04:51.513Z,2.60
2022-07-31T16:08:29.508Z,2.80
2022-07-31T16:10:16.193Z,2.35
2022-07-31T16:12:46.873Z,2.90
2022-07-31T16:15:14.169Z,2.80
2022-07-31T16:17:41.151Z,2.65
2022-07-31T16:20:26.038Z,2.40
2022-07-31T16:22:59.193Z,3.08
2022-07-31T16:25:32.120Z,3.00
2022-07-31T16:28:01.760Z,3.00
2022-07-31T16:30:28.437Z,3.20
2022-07-31T16:32:57.371Z,2.70
2022-07-31T16:35:26.376Z,2.70
2022-07-31T16:37:54.124Z,2.60
2022-07-31T16:40:31.889Z,2.72
2022-07-31T16:43:01.392Z,5.53
2022-07-31T16:45:29.067Z,3.55
2022-07-31T16:47:58.803Z,3.00
2022-07-31T16:50:25.934Z,2.75
2022-07-31T16:52:54.792Z,3.08
2022-07-31T16:55:46.979Z,3.17
2022-07-31T16:58:11.329Z,3.00
2022-07-31T17:00:39.307Z,3.10
2022-07-31T17:03:06.305Z,3.20
2022-07-31T17:05:32.892Z,3.00
2022-07-31T17:07:59.504Z,2.67
2022-07-31T17:10:29.757Z,3.00
2022-07-31T17:12:59.352Z,3.05
2022-07-31T17:15:29.143Z,2.95
2022-07-31T17:17:58.612Z,3.05
2022-07-31T17:20:25.607Z,3.03
2022-07-31T17:22:56.358Z,2.90
2022-07-31T17:25:23.217Z,2.95
2022-07-31T17:27:51.776Z,2.50
2022-07-31T17:30:18.358Z,2.67
2022-07-31T17:32:44.999Z,2.45
2022-07-31T17:35:13.703Z,2.50
2022-07-31T17:37:40.498Z,2.97
2022-07-31T17:40:27.227Z,3.00
2022-07-31T17:42:54.724Z,2.85
2022-07-31T17:45:21.460Z,2.90
2022-07-31T17:47:50.299Z,2.80
2022-07-31T17:50:30.559Z,2.90
2022-07-31T17:52:58.629Z,2.83
2022-07-31T17:55:25.271Z,3.13
2022-07-31T17:57:51.951Z,3.00
2022-07-31T18:00:19.291Z,2.90
2022-07-31T18:05:28.590Z,2.80
2022-07-31T18:07:55.226Z,2.90
2022-07-31T18:10:32.629Z,3.20
2022-07-31T18:15:49.405Z,3.10
2022-07-31T18:18:16.252Z,2.65
2022-07-31T18:20:45.251Z,3.13
2022-07-31T18:23:12.112Z,2.88
2022-07-31T18:25:41.323Z,2.85
2022-07-31T18:28:08.867Z,2.80
2022-07-31T18:30:38.895Z,3.10
2022-07-31T18:33:06.091Z,3.08
2022-07-31T18:35:32.835Z,3.10
2022-07-31T18:37:59.489Z,2.50
2022-07-31T18:40:26.105Z,2.67
2022-07-31T18:42:52.728Z,2.70
2022-07-31T18:45:19.255Z,2.80
2022-07-31T18:47:46.166Z,3.03
2022-07-31T18:50:58.700Z,3.13
2022-07-31T18:53:00.118Z,4.28
2022-07-31T18:55:29.370Z,5.60
2022-07-31T18:57:59.517Z,4.97
2022-07-31T19:00:26.539Z,3.80
2022-07-31T19:02:53.117Z,3.67
2022-07-31T19:05:21.486Z,3.80
2022-07-31T19:07:48.882Z,3.97
2022-07-31T19:10:30.932Z,4.30
2022-07-31T19:12:59.251Z,3.17
2022-07-31T19:15:26.219Z,3.45
2022-07-31T19:17:52.736Z,3.00
2022-07-31T19:20:56.488Z,3.33
2022-07-31T19:23:14.932Z,3.40
2022-07-31T19:26:02.640Z,2.88
2022-07-31T19:28:31.294Z,2.80
2022-07-31T19:30:58.582Z,3.28
2022-07-31T19:33:25.520Z,2.95
2022-07-31T19:35:58.295Z,3.15
2022-07-31T19:38:28.657Z,3.03
2022-07-31T19:40:55.947Z,3.78
2022-07-31T19:43:22.589Z,3.35
2022-07-31T19:46:09.350Z,3.03
2022-07-31T19:48:36.708Z,3.38
2022-07-31T19:51:04.199Z,3.00
2022-07-31T19:53:30.763Z,3.20
2022-07-31T19:55:57.469Z,2.90
2022-07-31T19:58:24.234Z,3.25
2022-07-31T20:00:51.118Z,3.45
2022-07-31T20:03:17.751Z,4.85
2022-07-31T20:05:44.382Z,3.15
2022-07-31T20:08:11.037Z,2.88
2022-07-31T20:10:37.597Z,2.85
2022-07-31T20:13:04.265Z,2.88
2022-07-31T20:15:50.988Z,2.85
2022-07-31T20:18:27.602Z,3.28
2022-07-31T20:20:57.351Z,2.88
2022-07-31T20:23:24.951Z,2.75
2022-07-31T20:25:51.519Z,2.78
2022-07-31T20:28:18.067Z,2.72
2022-07-31T20:30:44.653Z,3.03
2022-07-31T20:33:13.451Z,2.88
2022-07-31T20:35:47.760Z,3.15
2022-07-31T20:38:17.410Z,2.83
2022-07-31T20:40:53.823Z,3.03
2022-07-31T20:43:25.685Z,3.15
2022-07-31T20:45:53.938Z,2.90
2022-07-31T20:48:24.189Z,2.55
2022-07-31T20:50:52.522Z,2.78
2022-07-31T20:53:21.056Z,2.90
2022-07-31T20:55:49.946Z,3.28
2022-07-31T20:58:21.169Z,2.90
2022-07-31T21:00:52.600Z,3.17
2022-07-31T21:03:20.057Z,3.08
2022-07-31T21:05:48.083Z,3.40
2022-07-31T21:08:16.547Z,3.50
2022-07-31T21:10:44.529Z,3.05
2022-07-31T21:13:12.006Z,3.08
2022-07-31T21:15:42.608Z,3.25
2022-07-31T21:18:20.469Z,2.90
2022-07-31T21:20:51.551Z,4.38
2022-07-31T21:23:24.288Z,4.57
2022-07-31T21:25:56.671Z,3.05
2022-07-31T21:28:25.716Z,3.08
2022-07-31T21:30:58.378Z,3.03
2022-07-31T21:33:27.351Z,3.03
2022-07-31T21:35:57.353Z,3.00
2022-07-31T21:38:27.921Z,2.97
2022-07-31T21:40:55.792Z,2.92
2022-07-31T21:43:23.153Z,3.05
2022-07-31T21:45:57.890Z,3.38
2022-07-31T21:48:30.244Z,2.90
2022-07-31T21:50:57.764Z,2.85
2022-07-31T21:53:25.007Z,3.08
2022-07-31T21:55:52.048Z,2.90
2022-07-31T21:58:19.358Z,3.53
2022-07-31T22:00:46.228Z,3.03
2022-07-31T22:03:13.095Z,2.70
2022-07-31T22:05:58.781Z,3.35
2022-07-31T22:08:25.775Z,3.13
2022-07-31T22:10:53.507Z,3.00
2022-07-31T22:13:20.674Z,2.83
2022-07-31T22:15:55.666Z,2.90
2022-07-31T22:18:29.347Z,2.80
2022-07-31T22:20:59.665Z,1.95
2022-07-31T22:23:27.995Z,3.05
2022-07-31T22:25:55.261Z,2.92
2022-07-31T22:28:23.975Z,2.50
2022-07-31T22:30:52.010Z,3.13
2022-07-31T22:33:19.479Z,3.25
2022-07-31T22:35:58.452Z,2.83
2022-07-31T22:38:28.142Z,3.17
2022-07-31T22:40:55.244Z,2.92
2022-07-31T22:44:10.710Z,2.70
2022-07-31T22:46:11.699Z,2.70
2022-07-31T22:48:40.991Z,3.88
2022-07-31T22:51:08.886Z,3.10
2022-07-31T22:53:38.601Z,3.33
2022-07-31T22:56:08.468Z,3.03
2022-07-31T22:58:38.340Z,3.10
2022-07-31T23:01:07.808Z,2.88
2022-07-31T23:03:37.724Z,3.00
2022-07-31T23:06:31.076Z,3.20
2022-07-31T23:08:54.881Z,3.17
2022-07-31T23:11:22.297Z,2.90
2022-07-31T23:13:49.095Z,3.03
2022-07-31T23:16:15.977Z,4.10
2022-07-31T23:18:42.722Z,3.13
2022-07-31T23:21:09.797Z,2.75
2022-07-31T23:23:40.403Z,2.88
2022-07-31T23:26:10.524Z,3.00
2022-07-31T23:28:40.430Z,2.97
2022-07-31T23:31:08.713Z,3.20
2022-07-31T23:33:35.690Z,3.10
2022-07-31T23:36:02.624Z,3.00
2022-07-31T23:38:29.461Z,2.90
2022-07-31T23:40:56.654Z,3.50
2022-07-31T23:43:23.951Z,3.58
2022-07-31T23:45:51.099Z,3.25
2022-07-31T23:48:19.285Z,3.40
2022-07-31T23:50:47.837Z,3.47
2022-07-31T23:53:18.412Z,3.28
2022-07-31T23:55:45.274Z,3.15
2022-07-31T23:58:12.171Z,3.50
